Reading, Minnesota
Current Conditions -  °F | °C
As of 1:55 AM on Thursday 23 Oct 2014 (Local Time) from KOTG Reporting Station
Broken Clouds Broken Clouds  
Wind Chill: 54°   Ceiling: 400
Heat Index: 54°   Visibility: 7mi
Dew Point: 54°   Wind: 7mph
Humidity: 100%   Direction: 260°W
Pressure: 30.02"   Gusts: NA
Location:  43.7°N, 95.71°W
Report Text: KOTG 230655Z AUTO 26006KT 7SM BKN004 12/12 A3002 RMK AO1
Loading
Personal Weather Stations






























Interactive Weather Map
Tropical Storm Tracking
New forecast layout! Learn more

10-Day Weather Forecast

Advertisements
Track Severe Weather on mobile